Time;durP1;ratioP1;P1;durP2;ratioP2;P2;SDS_P1;SDS_P2;PMS_P1;PMS_P2;Temp;Humidity;BMP_temperature;BMP_pressure;BME280_temperature;BME280_humidity;BME280_pressure;Samples;Min_cycle;Max_cycle;Signal;HPM_P1;HPM_P2
2021/04/06 00:22:51;;;;;;;10.80;2.90;;;9.80;57.50;;;;;;5105038;22;20497;-69
2021/04/06 00:27:51;;;;;;;8.75;2.55;;;9.70;57.50;;;;;;5104863;22;20054;-69
2021/04/06 00:37:52;;;;;;;12.57;2.47;;;9.60;57.50;;;;;;5105069;22;20082;-70
2021/04/06 00:40:19;;;;;;;8.75;2.65;;;9.60;57.20;;;;;;5102985;22;20055;-69
2021/04/06 00:42:46;;;;;;;8.88;2.40;;;9.50;57.40;;;;;;5102871;22;20546;-70
2021/04/06 00:52:55;;;;;;;6.50;2.40;;;9.50;55.70;;;;;;5120221;22;20093;-70
2021/04/06 00:55:21;;;;;;;7.40;1.77;;;9.50;55.50;;;;;;5101387;22;20060;-69
2021/04/06 00:57:47;;;;;;;8.02;1.95;;;9.40;55.30;;;;;;5097105;22;20059;-69
2021/04/06 01:00:25;;;;;;;8.05;2.50;;;9.50;55.00;;;;;;5103964;22;20097;-69
2021/04/06 01:15:10;;;;;;;8.63;2.30;;;9.30;54.90;;;;;;5103950;22;20567;-70
2021/04/06 01:17:38;;;;;;;11.95;3.03;;;9.20;55.30;;;;;;5095047;22;20119;-69
2021/04/06 01:20:12;;;;;;;9.52;2.45;;;9.10;55.40;;;;;;5102403;22;20062;-69
2021/04/06 01:22:37;;;;;;;6.07;2.72;;;9.10;55.60;;;;;;5103696;22;20413;-69
2021/04/06 01:25:05;;;;;;;5.20;1.77;;;9.10;55.80;;;;;;5120044;22;20051;-69
2021/04/06 01:27:30;;;;;;;7.93;2.20;;;9.00;56.20;;;;;;5093991;22;20083;-70
2021/04/06 01:29:57;;;;;;;8.40;2.50;;;8.90;56.60;;;;;;5101953;22;20071;-69
2021/04/06 01:32:26;;;;;;;9.55;2.40;;;8.80;56.70;;;;;;5124167;22;20044;-69
2021/04/06 01:39:48;;;;;;;13.70;2.22;;;8.60;57.90;;;;;;5124076;22;20104;-69
2021/04/06 01:42:14;;;;;;;5.65;2.33;;;8.50;58.30;;;;;;5123641;22;20077;-70
2021/04/06 01:44:43;;;;;;;5.97;1.80;;;8.40;58.50;;;;;;5102204;22;20074;-71
2021/04/06 01:47:06;;;;;;;8.18;2.40;;;8.30;59.00;;;;;;5123932;22;20500;-69
2021/04/06 01:49:33;;;;;;;8.20;2.25;;;8.30;59.50;;;;;;5102008;22;20565;-69
2021/04/06 01:52:00;;;;;;;10.38;2.75;;;8.20;59.90;;;;;;5101646;22;20048;-70
2021/04/06 01:54:26;;;;;;;9.20;2.28;;;8.20;60.20;;;;;;5123537;22;20065;-69
2021/04/06 01:56:55;;;;;;;8.18;2.25;;;8.10;60.50;;;;;;5101815;22;20048;-70
2021/04/06 02:09:14;;;;;;;12.52;2.85;;;7.80;62.00;;;;;;5083667;22;20056;-69
2021/04/06 02:11:40;;;;;;;8.27;2.40;;;7.70;62.30;;;;;;5036846;22;20101;-69
2021/04/06 02:14:09;;;;;;;10.38;2.58;;;7.70;62.70;;;;;;5081839;23;20048;-69
2021/04/06 02:17:05;;;;;;;9.23;2.67;;;7.70;62.90;;;;;;5102512;22;20076;-69
2021/04/06 02:42:37;;;;;;;12.10;2.78;;;7.50;63.80;;;;;;5102578;22;20052;-69
2021/04/06 03:00:28;;;;;;;16.67;3.72;;;7.40;63.70;;;;;;5102551;22;20569;-69
2021/04/06 03:02:55;;;;;;;10.23;2.67;;;7.40;64.10;;;;;;5101105;22;20052;-69
2021/04/06 03:05:27;;;;;;;12.90;2.55;;;7.40;64.70;;;;;;5100024;22;20052;-69
2021/04/06 03:07:53;;;;;;;7.38;2.47;;;7.30;64.30;;;;;;5101415;22;20059;-69
2021/04/06 03:10:20;;;;;;;9.90;2.83;;;7.30;64.60;;;;;;5100653;22;20052;-69
2021/04/06 03:12:47;;;;;;;10.48;3.00;;;7.40;64.70;;;;;;5102668;22;20048;-69
2021/04/06 03:22:39;;;;;;;9.98;3.53;;;7.40;64.40;;;;;;5106818;22;20052;-67
2021/04/06 03:25:06;;;;;;;10.82;3.10;;;7.30;64.90;;;;;;5105506;22;20059;-67
2021/04/06 03:27:33;;;;;;;11.65;3.15;;;7.20;65.60;;;;;;5104587;22;20074;-66
2021/04/06 03:30:02;;;;;;;9.15;2.80;;;7.00;66.50;;;;;;5106165;22;20052;-66
2021/04/06 03:34:54;;;;;;;11.57;2.58;;;6.80;67.80;;;;;;5106666;22;20048;-66
2021/04/06 03:37:21;;;;;;;10.32;2.53;;;6.70;68.10;;;;;;5104527;22;20048;-66
2021/04/06 03:39:47;;;;;;;9.60;2.65;;;6.60;68.20;;;;;;5104441;22;20109;-66
2021/04/06 03:47:58;;;;;;;9.10;2.65;;;6.30;68.00;;;;;;5047902;22;20493;-66
2021/04/06 03:50:41;;;;;;;9.77;3.38;;;6.20;67.90;;;;;;5009513;22;20061;-66
2021/04/06 03:53:09;;;;;;;11.32;2.75;;;6.20;68.00;;;;;;5045603;23;20052;-68
2021/04/06 04:00:31;;;;;;;9.45;2.38;;;6.10;67.70;;;;;;5046916;22;20061;-71
2021/04/06 04:05:26;;;;;;;11.05;2.65;;;5.90;68.20;;;;;;5124859;22;20397;-65
2021/04/06 04:07:52;;;;;;;11.77;2.88;;;5.80;68.30;;;;;;5086461;22;20052;-66
2021/04/06 04:10:18;;;;;;;10.57;3.15;;;5.70;69.00;;;;;;5102943;22;20148;-65
2021/04/06 04:12:44;;;;;;;9.25;2.50;;;5.70;68.80;;;;;;5106842;22;20058;-66
2021/04/06 04:15:10;;;;;;;8.73;2.90;;;5.80;68.40;;;;;;5103186;22;20089;-64
2021/04/06 04:17:36;;;;;;;8.13;2.72;;;5.70;68.30;;;;;;5102804;22;20048;-67
2021/04/06 04:22:33;;;;;;;10.90;3.00;;;5.80;68.00;;;;;;5104974;22;20082;-69
2021/04/06 04:24:59;;;;;;;6.63;2.78;;;5.80;68.00;;;;;;5102018;22;20052;-70
2021/04/06 04:27:25;;;;;;;10.85;2.20;;;5.70;67.90;;;;;;5106623;22;20416;-69
2021/04/06 04:29:50;;;;;;;4.35;2.17;;;5.70;68.10;;;;;;5103183;22;20041;-69
2021/04/06 04:32:16;;;;;;;8.82;2.75;;;5.70;68.10;;;;;;5104869;22;20083;-68
2021/04/06 04:34:42;;;;;;;11.20;2.65;;;5.70;68.40;;;;;;5103401;22;20079;-71
2021/04/06 04:37:08;;;;;;;14.38;2.83;;;5.70;68.20;;;;;;5103017;22;20182;-69
2021/04/06 04:39:34;;;;;;;11.27;2.63;;;5.80;67.80;;;;;;5082930;23;20057;-69
2021/04/06 04:42:10;;;;;;;;;;;;;;;;;;;;;
2021/04/06 04:44:26;;;;;;;9.70;2.83;;;5.70;68.40;;;;;;5104357;22;20055;-68
2021/04/06 04:46:52;;;;;;;12.90;3.22;;;5.70;68.60;;;;;;5102955;22;20450;-67
2021/04/06 04:49:18;;;;;;;10.35;2.53;;;5.70;68.70;;;;;;5102629;22;20151;-68
2021/04/06 04:51:44;;;;;;;7.25;2.38;;;5.70;68.70;;;;;;5105947;22;20079;-68
2021/04/06 04:54:10;;;;;;;8.70;2.97;;;5.80;68.60;;;;;;5104265;22;20052;-68
2021/04/06 04:56:35;;;;;;;10.00;2.78;;;5.80;68.70;;;;;;5102921;22;20063;-68
2021/04/06 04:59:01;;;;;;;6.47;2.90;;;5.70;68.90;;;;;;5103225;22;20056;-68
2021/04/06 05:01:27;;;;;;;7.28;2.88;;;5.60;69.40;;;;;;5098300;22;20083;-67
2021/04/06 05:03:53;;;;;;;10.52;3.10;;;5.60;69.60;;;;;;5102562;22;20044;-68
2021/04/06 05:06:19;;;;;;;7.85;2.70;;;5.50;69.80;;;;;;5102919;22;20056;-68
2021/04/06 05:08:45;;;;;;;12.13;2.50;;;5.60;69.60;;;;;;5085848;22;20062;-69
2021/04/06 05:13:36;;;;;;;10.65;2.67;;;5.50;69.90;;;;;;5123402;22;20046;-68
2021/04/06 05:16:03;;;;;;;7.20;3.03;;;5.60;69.80;;;;;;5102430;22;20104;-68
2021/04/06 05:18:29;;;;;;;9.27;3.10;;;5.60;69.70;;;;;;5105746;22;20141;-73
2021/04/06 05:20:55;;;;;;;8.63;2.70;;;5.60;70.10;;;;;;5101810;22;20109;-68
2021/04/06 05:23:21;;;;;;;7.30;2.65;;;5.60;70.00;;;;;;5101741;22;20052;-68
2021/04/06 05:25:47;;;;;;;22.48;5.05;;;5.60;70.10;;;;;;5101980;22;20052;-68
2021/04/06 05:28:13;;;;;;;8.75;3.10;;;5.70;70.00;;;;;;5102585;22;20059;-68
2021/04/06 05:30:39;;;;;;;11.45;2.90;;;5.60;69.90;;;;;;5101900;22;20050;-68
2021/04/06 05:33:06;;;;;;;9.95;2.80;;;5.60;70.10;;;;;;5102201;22;20056;-68
2021/04/06 05:35:32;;;;;;;6.55;2.65;;;5.60;70.30;;;;;;5101423;22;20052;-69
2021/04/06 05:37:58;;;;;;;10.70;2.83;;;5.60;70.10;;;;;;5124158;22;20051;-69
2021/04/06 05:40:25;;;;;;;12.18;3.17;;;5.60;69.70;;;;;;5102053;22;20058;-69
2021/04/06 05:50:13;;;;;;;9.77;2.90;;;5.50;70.20;;;;;;5063118;22;20168;-67
2021/04/06 05:52:40;;;;;;;10.75;2.70;;;5.60;70.40;;;;;;5081312;23;20147;-65
2021/04/06 05:57:33;;;;;;;7.75;2.58;;;5.60;69.80;;;;;;5102417;23;20043;-71
2021/04/06 06:02:25;;;;;;;5.50;2.50;;;5.80;68.90;;;;;;5102093;22;20059;-65
2021/04/06 06:04:54;;;;;;;8.48;3.17;;;5.70;68.90;;;;;;5006504;22;20469;-68
2021/04/06 06:07:20;;;;;;;15.65;3.70;;;5.70;69.60;;;;;;5063953;22;20060;-65
2021/04/06 06:09:46;;;;;;;10.35;3.42;;;5.80;68.90;;;;;;5081199;23;20045;-70
2021/04/06 06:12:14;;;;;;;11.38;3.50;;;5.70;68.70;;;;;;5082324;22;20106;-69
2021/04/06 06:14:45;;;;;;;8.65;2.92;;;5.70;68.70;;;;;;5062745;22;20064;-73
2021/04/06 06:17:32;;;;;;;18.10;3.42;;;5.80;68.30;;;;;;5083138;23;20052;-73
2021/04/06 06:22:31;;;;;;;18.95;5.85;;;5.70;68.10;;;;;;5068747;22;20092;-71
2021/04/06 06:25:18;;;;;;;11.20;3.78;;;5.70;68.00;;;;;;5068800;22;20053;-63
2021/04/06 06:27:45;;;;;;;13.43;3.60;;;5.70;68.40;;;;;;5122483;22;20048;-65
2021/04/06 06:30:31;;;;;;;7.68;3.00;;;5.70;69.00;;;;;;5123240;22;20472;-64
2021/04/06 06:33:24;;;;;;;8.45;3.28;;;5.60;70.50;;;;;;5122783;22;20051;-65
2021/04/06 06:35:53;;;;;;;6.70;2.70;;;5.50;70.00;;;;;;5100462;22;20397;-65
2021/04/06 06:38:24;;;;;;;8.95;3.20;;;5.50;69.90;;;;;;5100352;23;20151;-65
2021/04/06 06:40:52;;;;;;;10.20;3.30;;;5.50;69.20;;;;;;5083346;22;20390;-66
2021/04/06 06:43:21;;;;;;;7.35;3.35;;;5.50;69.50;;;;;;5100461;22;20109;-66
2021/04/06 06:50:58;;;;;;;11.50;3.75;;;5.80;67.90;;;;;;5122802;22;20055;-66
2021/04/06 07:08:40;;;;;;;19.40;4.10;;;6.10;63.60;;;;;;5083524;22;20409;-66
2021/04/06 07:11:03;;;;;;;12.02;4.18;;;6.20;62.80;;;;;;5101739;22;20134;-67
2021/04/06 07:13:32;;;;;;;11.20;4.10;;;6.20;62.50;;;;;;5083691;22;20181;-66
2021/04/06 07:15:59;;;;;;;11.55;4.00;;;6.30;62.00;;;;;;5121873;22;20051;-66
2021/04/06 07:20:57;;;;;;;13.18;4.18;;;6.20;61.70;;;;;;5121824;22;20216;-66
2021/04/06 07:28:40;;;;;;;14.02;4.38;;;6.30;60.40;;;;;;5101631;22;20070;-66
2021/04/06 07:31:08;;;;;;;11.00;3.70;;;6.40;60.30;;;;;;5118121;22;20081;-66
2021/04/06 07:43:29;;;;;;;14.02;3.85;;;6.60;58.80;;;;;;5122058;22;20047;-66
2021/04/06 07:45:55;;;;;;;13.73;3.60;;;6.80;58.50;;;;;;5099617;22;20052;-66
2021/04/06 07:48:48;;;;;;;12.80;4.55;;;6.80;57.40;;;;;;5100085;22;20060;-66
2021/04/06 07:51:18;;;;;;;14.98;4.22;;;6.90;57.20;;;;;;5099672;23;20504;-65
2021/04/06 07:54:01;;;;;;;11.27;3.72;;;7.00;57.40;;;;;;5100106;22;20059;-66
2021/04/06 07:56:51;;;;;;;9.18;3.58;;;7.00;57.20;;;;;;5100211;22;20101;-67
2021/04/06 07:59:19;;;;;;;8.85;3.00;;;7.10;57.20;;;;;;5102325;22;20052;-66
2021/04/06 08:01:47;;;;;;;16.35;4.45;;;7.10;55.40;;;;;;5100603;28;20042;-66
2021/04/06 08:04:14;;;;;;;14.63;4.00;;;7.00;55.40;;;;;;5099998;28;20032;-66
2021/04/06 08:09:35;;;;;;;12.95;3.78;;;7.20;55.40;;;;;;5125474;22;20074;-66
2021/04/06 08:14:45;;;;;;;15.13;3.50;;;7.30;52.60;;;;;;5122915;22;20450;-67
2021/04/06 08:17:26;;;;;;;10.75;3.63;;;7.30;52.70;;;;;;5099451;28;20484;-67
2021/04/06 08:20:26;;;;;;;8.15;3.20;;;7.40;52.30;;;;;;5099494;28;20039;-67
2021/04/06 08:22:56;;;;;;;12.70;3.00;;;7.50;52.40;;;;;;5045265;22;20050;-64
2021/04/06 08:25:22;;;;;;;10.52;3.08;;;7.60;52.40;;;;;;5084174;22;20048;-64
2021/04/06 08:30:24;;;;;;;12.82;3.53;;;7.70;50.80;;;;;;5104499;22;20493;-64
2021/04/06 08:32:58;;;;;;;9.77;3.58;;;7.70;49.90;;;;;;5104732;22;20040;-64
2021/04/06 08:35:46;;;;;;;11.48;3.72;;;7.80;51.40;;;;;;5102983;22;20064;-64
2021/04/06 08:38:38;;;;;;;14.30;3.10;;;8.00;50.90;;;;;;5093738;28;20028;-63
2021/04/06 08:41:12;;;;;;;10.68;4.25;;;8.20;50.30;;;;;;5095338;23;20061;-63
2021/04/06 08:43:51;;;;;;;10.35;3.88;;;8.30;50.10;;;;;;5103471;23;20138;-64
2021/04/06 08:46:43;;;;;;;10.48;3.40;;;8.40;49.20;;;;;;5102919;22;20081;-64
2021/04/06 08:51:42;;;;;;;15.13;4.18;;;8.40;48.60;;;;;;5102166;22;20083;-63
2021/04/06 08:54:10;;;;;;;21.30;4.00;;;8.40;47.80;;;;;;5100300;22;20044;-65
2021/04/06 08:59:13;;;;;;;10.38;4.20;;;8.40;48.40;;;;;;5085167;22;20083;-65
2021/04/06 09:01:41;;;;;;;10.77;4.50;;;8.30;48.60;;;;;;5063919;23;20147;-63
2021/04/06 09:04:12;;;;;;;13.70;5.28;;;8.30;49.00;;;;;;5102242;22;20068;-65
2021/04/06 09:06:38;;;;;;;10.52;4.18;;;8.50;48.40;;;;;;5062754;22;20485;-64
2021/04/06 09:09:04;;;;;;;9.90;3.90;;;8.50;47.00;;;;;;5079484;23;20059;-64
2021/04/06 09:13:56;;;;;;;7.47;2.80;;;8.70;47.50;;;;;;5124655;22;20066;-64
2021/04/06 09:16:23;;;;;;;10.50;3.97;;;8.80;42.60;;;;;;5123479;22;20043;-64
2021/04/06 09:21:29;;;;;;;13.25;3.83;;;8.80;43.20;;;;;;5123900;22;20055;-64
2021/04/06 09:31:15;;;;;;;20.67;3.72;;;9.10;41.60;;;;;;5082810;23;20067;-63
2021/04/06 09:33:41;;;;;;;7.20;2.55;;;9.40;40.20;;;;;;5082447;22;20139;-64
2021/04/06 09:38:39;;;;;;;13.15;2.60;;;9.30;38.00;;;;;;5063973;22;20109;-64
2021/04/06 09:41:07;;;;;;;8.00;2.38;;;9.40;36.90;;;;;;5062995;23;20090;-65
2021/04/06 09:43:34;;;;;;;9.52;2.60;;;9.40;35.10;;;;;;5063734;22;20084;-64
2021/04/06 09:46:00;;;;;;;7.28;2.35;;;9.50;35.50;;;;;;5082891;23;20052;-65
2021/04/06 09:53:26;;;;;;;4.07;2.20;;;9.70;35.10;;;;;;5083366;22;20509;-65
2021/04/06 10:00:47;;;;;;;15.13;3.50;;;9.90;35.40;;;;;;5064635;22;20064;-64
2021/04/06 10:08:13;;;;;;;17.90;2.60;;;9.90;32.40;;;;;;5102820;22;20158;-65
2021/04/06 10:38:23;;;;;;;4.07;1.60;;;10.10;29.80;;;;;;5102913;22;20091;-64
2021/04/06 10:43:26;;;;;;;11.07;2.85;;;10.40;29.70;;;;;;5081319;22;20052;-63
2021/04/06 10:48:36;;;;;;;6.50;1.48;;;10.50;29.20;;;;;;5101647;22;20497;-64
2021/04/06 11:06:15;;;;;;;11.38;3.85;;;10.50;30.00;;;;;;5101529;22;20048;-64
2021/04/06 11:08:44;;;;;;;5.95;1.60;;;10.70;29.80;;;;;;5093744;22;20109;-63
2021/04/06 11:11:18;;;;;;;13.50;3.17;;;10.80;29.60;;;;;;5119122;22;20070;-66
2021/04/06 11:13:44;;;;;;;7.70;3.67;;;10.80;29.70;;;;;;5094144;23;20052;-64
2021/04/06 11:21:03;;;;;;;8.32;1.80;;;11.30;29.50;;;;;;5101460;22;20110;-63
2021/04/06 11:23:29;;;;;;;6.15;1.90;;;11.20;29.70;;;;;;5092128;23;20047;-64
2021/04/06 11:25:55;;;;;;;4.53;2.17;;;10.90;30.30;;;;;;5099996;22;20152;-63
2021/04/06 11:28:21;;;;;;;4.32;1.60;;;10.90;29.70;;;;;;5120729;22;20124;-63
2021/04/06 11:30:47;;;;;;;4.03;1.65;;;10.90;30.00;;;;;;5101348;22;20060;-64
2021/04/06 11:33:13;;;;;;;10.55;2.40;;;11.00;29.60;;;;;;5100076;22;20404;-67
2021/04/06 11:35:39;;;;;;;5.13;2.15;;;11.00;29.90;;;;;;5104747;22;20055;-64
2021/04/06 11:38:05;;;;;;;4.68;1.77;;;11.00;29.90;;;;;;5064691;22;20056;-63
2021/04/06 11:40:31;;;;;;;8.50;1.90;;;11.20;30.40;;;;;;5095329;23;20055;-63
2021/04/06 11:42:57;;;;;;;5.78;2.17;;;11.20;30.00;;;;;;5104014;22;20138;-64
2021/04/06 11:45:23;;;;;;;5.63;2.28;;;11.00;30.00;;;;;;5104352;22;20048;-64
2021/04/06 11:50:20;;;;;;;6.55;2.22;;;11.00;30.00;;;;;;5105238;22;20143;-63
2021/04/06 11:55:13;;;;;;;5.28;2.13;;;11.10;29.70;;;;;;5123371;22;20055;-65
2021/04/06 11:57:39;;;;;;;6.72;1.92;;;11.20;29.60;;;;;;5096584;22;20044;-70
2021/04/06 12:00:06;;;;;;;5.60;2.15;;;11.30;29.90;;;;;;5104320;22;20048;-69
2021/04/06 12:02:33;;;;;;;4.65;2.25;;;11.50;30.50;;;;;;5096009;22;20056;-68
2021/04/06 12:04:59;;;;;;;4.18;1.95;;;11.70;30.00;;;;;;5121424;22;20524;-69
2021/04/06 12:09:51;;;;;;;8.52;2.03;;;11.30;30.00;;;;;;5119683;22;20052;-65
2021/04/06 12:12:17;;;;;;;5.18;2.15;;;11.30;30.30;;;;;;5104968;22;20505;-64
2021/04/06 12:14:43;;;;;;;6.40;1.92;;;11.60;30.00;;;;;;5097468;22;20138;-63
2021/04/06 12:17:09;;;;;;;6.93;2.03;;;11.90;29.70;;;;;;5104829;22;20056;-68
2021/04/06 12:19:35;;;;;;;6.05;1.75;;;11.60;29.20;;;;;;5095833;22;20070;-56
2021/04/06 12:24:27;;;;;;;6.00;1.85;;;11.90;28.90;;;;;;5123726;22;20135;-56
2021/04/06 12:26:54;;;;;;;7.65;1.90;;;11.60;29.20;;;;;;5102000;22;20052;-56
2021/04/06 12:29:20;;;;;;;6.60;2.20;;;11.60;29.50;;;;;;5101615;22;20048;-57
2021/04/06 12:31:46;;;;;;;4.25;1.80;;;11.80;29.30;;;;;;5117577;22;20138;-56
2021/04/06 12:34:12;;;;;;;5.10;2.05;;;11.80;29.60;;;;;;5100084;22;20052;-56
2021/04/06 12:36:38;;;;;;;7.13;2.47;;;11.80;29.70;;;;;;5088445;28;20576;-56
2021/04/06 12:41:30;;;;;;;5.95;1.92;;;11.60;30.00;;;;;;5104117;23;20052;-56
2021/04/06 12:43:56;;;;;;;7.75;2.40;;;11.80;29.70;;;;;;5028503;23;20049;-57
2021/04/06 12:46:22;;;;;;;7.20;2.20;;;11.90;29.80;;;;;;5099669;23;20073;-57
2021/04/06 12:48:48;;;;;;;5.28;2.03;;;11.90;29.90;;;;;;5103027;22;20051;-56
2021/04/06 12:51:14;;;;;;;4.50;2.13;;;11.90;29.90;;;;;;5103346;22;20170;-57
2021/04/06 12:53:40;;;;;;;4.55;1.92;;;12.00;30.00;;;;;;5089198;23;20118;-57
2021/04/06 12:56:06;;;;;;;7.30;2.17;;;12.10;30.00;;;;;;5103330;22;20048;-56
2021/04/06 13:00:58;;;;;;;4.80;2.10;;;11.90;29.60;;;;;;5101249;22;20048;-55
2021/04/06 13:03:24;;;;;;;4.68;1.90;;;11.50;30.00;;;;;;5100979;23;20055;-57
2021/04/06 13:05:50;;;;;;;6.10;2.05;;;11.20;30.50;;;;;;5082138;23;20065;-56
2021/04/06 13:08:16;;;;;;;8.57;2.72;;;11.60;31.20;;;;;;5102807;22;20075;-57
2021/04/06 13:10:44;;;;;;;5.38;1.88;;;12.00;30.60;;;;;;5102052;22;20076;-57
2021/04/06 13:13:10;;;;;;;4.72;2.20;;;12.20;29.80;;;;;;5102365;22;20048;-56
2021/04/06 13:15:40;;;;;;;7.40;2.95;;;12.40;30.00;;;;;;5087570;28;20553;-58
2021/04/06 13:18:07;;;;;;;5.85;2.72;;;12.40;30.00;;;;;;5102831;22;20508;-56
2021/04/06 13:20:32;;;;;;;6.43;2.58;;;12.20;30.00;;;;;;5104224;22;20054;-58
2021/04/06 13:22:58;;;;;;;5.65;2.17;;;12.20;29.80;;;;;;5098644;22;20056;-58
2021/04/06 13:25:24;;;;;;;7.10;2.70;;;12.10;29.90;;;;;;5104584;22;20051;-58
2021/04/06 13:27:51;;;;;;;6.40;1.98;;;12.20;30.10;;;;;;5096793;22;20063;-58
2021/04/06 13:30:19;;;;;;;6.60;2.50;;;12.30;29.50;;;;;;5124013;22;20054;-58
2021/04/06 13:35:13;;;;;;;4.30;2.20;;;12.30;29.40;;;;;;5124228;22;20082;-57
2021/04/06 13:37:40;;;;;;;6.65;2.22;;;12.40;29.40;;;;;;5102012;22;20104;-58
2021/04/06 13:40:09;;;;;;;7.82;2.42;;;12.30;29.50;;;;;;5101684;22;20052;-58
2021/04/06 13:47:31;;;;;;;5.25;2.42;;;12.50;30.00;;;;;;5103020;22;20148;-58
2021/04/06 13:49:57;;;;;;;4.72;2.00;;;12.20;29.30;;;;;;5097901;22;20085;-58
2021/04/06 13:52:23;;;;;;;5.35;2.20;;;12.20;29.60;;;;;;5103959;22;20389;-58
2021/04/06 13:54:49;;;;;;;5.43;2.60;;;12.30;29.70;;;;;;5102603;22;20059;-58
2021/04/06 13:57:15;;;;;;;6.65;2.10;;;12.60;30.10;;;;;;5101792;22;20048;-58
2021/04/06 13:59:41;;;;;;;5.18;2.42;;;12.40;30.00;;;;;;5101365;22;20052;-58
2021/04/06 14:04:34;;;;;;;6.32;2.33;;;12.30;30.20;;;;;;5064185;22;20126;-56
2021/04/06 14:07:00;;;;;;;5.78;2.60;;;12.20;30.00;;;;;;5006762;23;20518;-57
2021/04/06 14:09:26;;;;;;;7.75;2.40;;;11.90;30.20;;;;;;5042080;23;20107;-58
2021/04/06 14:11:52;;;;;;;4.97;2.10;;;12.20;30.50;;;;;;5046529;22;20057;-57
2021/04/06 14:14:18;;;;;;;4.40;2.30;;;12.40;30.00;;;;;;5065067;23;20056;-57
2021/04/06 14:16:44;;;;;;;6.72;2.50;;;12.20;29.70;;;;;;5046232;23;20048;-57
2021/04/06 14:19:10;;;;;;;4.65;2.25;;;12.40;30.70;;;;;;5036919;28;20125;-57
2021/04/06 14:21:35;;;;;;;8.07;2.97;;;12.50;29.80;;;;;;5083121;22;20539;-57
2021/04/06 14:24:01;;;;;;;5.97;2.25;;;12.60;29.90;;;;;;5065233;23;20497;-71
2021/04/06 14:26:27;;;;;;;5.75;2.10;;;12.20;30.00;;;;;;5045961;22;20092;-70
2021/04/06 14:28:53;;;;;;;4.75;2.38;;;12.10;30.50;;;;;;5023069;22;20126;-57
2021/04/06 14:33:45;;;;;;;4.65;2.28;;;12.40;30.00;;;;;;5083684;22;20060;-60
2021/04/06 14:36:13;;;;;;;7.60;2.50;;;12.20;30.90;;;;;;5042797;23;20083;-61
2021/04/06 14:41:04;;;;;;;4.97;2.20;;;11.60;31.20;;;;;;5062993;22;20057;-69
2021/04/06 14:51:01;;;;;;;8.45;3.00;;;12.50;29.60;;;;;;5101837;22;20048;-64
2021/04/06 14:53:28;;;;;;;7.38;2.47;;;12.70;29.60;;;;;;5079627;22;20082;-63
2021/04/06 14:55:53;;;;;;;6.00;2.05;;;12.80;29.80;;;;;;5096377;22;20097;-56
2021/04/06 14:58:25;;;;;;;8.20;2.60;;;12.50;30.80;;;;;;5083918;22;20117;-55
2021/04/06 15:00:51;;;;;;;7.45;2.55;;;12.10;31.50;;;;;;5079871;22;20055;-56
2021/04/06 15:03:18;;;;;;;5.68;2.40;;;12.00;32.20;;;;;;5083545;23;20063;-67
2021/04/06 15:05:43;;;;;;;4.85;2.35;;;12.40;31.60;;;;;;5080632;22;20056;-56
2021/04/06 15:08:11;;;;;;;5.78;2.30;;;12.10;32.00;;;;;;5083347;22;20463;-67
2021/04/06 15:10:37;;;;;;;3.38;2.00;;;11.50;31.90;;;;;;5080576;22;20551;-61
2021/04/06 15:13:03;;;;;;;5.18;1.90;;;11.20;32.80;;;;;;5102188;22;20063;-56
2021/04/06 15:15:29;;;;;;;8.68;2.65;;;10.80;33.60;;;;;;5081830;22;20053;-57
2021/04/06 15:17:55;;;;;;;4.72;2.25;;;10.70;34.50;;;;;;5084694;22;20171;-57
2021/04/06 15:20:21;;;;;;;9.20;2.15;;;10.60;34.40;;;;;;5083210;22;20044;-60
2021/04/06 15:22:48;;;;;;;6.90;2.38;;;10.50;34.80;;;;;;5083178;22;20064;-58
2021/04/06 15:32:39;;;;;;;7.93;2.40;;;10.10;35.80;;;;;;5101398;22;20485;-58
2021/04/06 15:42:30;;;;;;;4.43;1.70;;;10.20;35.70;;;;;;5082363;22;20041;-60
2021/04/06 15:44:58;;;;;;;5.60;1.63;;;10.40;35.30;;;;;;5056373;23;20057;-58
2021/04/06 15:47:25;;;;;;;7.47;1.75;;;10.80;34.20;;;;;;5100909;22;20082;-59
2021/04/06 15:49:52;;;;;;;7.80;1.85;;;11.00;34.10;;;;;;5089928;23;20102;-60
2021/04/06 15:52:35;;;;;;;5.28;1.88;;;11.20;34.30;;;;;;5099635;22;20508;-58
2021/04/06 15:55:03;;;;;;;5.88;1.55;;;11.30;33.90;;;;;;5092344;23;20070;-60
2021/04/06 15:57:29;;;;;;;5.05;1.90;;;11.00;34.60;;;;;;5100174;22;20052;-60
2021/04/06 15:59:55;;;;;;;4.10;1.70;;;10.80;34.60;;;;;;5100504;22;20055;-59
2021/04/06 16:02:21;;;;;;;3.25;1.73;;;11.10;34.60;;;;;;5099567;22;20051;-59
2021/04/06 16:04:48;;;;;;;3.28;1.30;;;11.40;33.70;;;;;;5088408;22;20044;-59
2021/04/06 16:07:14;;;;;;;4.75;1.50;;;11.40;33.30;;;;;;5080092;23;20565;-59
2021/04/06 16:09:40;;;;;;;3.83;1.60;;;11.20;33.30;;;;;;5099596;22;20048;-58
2021/04/06 16:12:07;;;;;;;8.52;1.75;;;11.00;34.00;;;;;;5100131;22;20093;-59
2021/04/06 16:14:33;;;;;;;3.20;1.15;;;11.00;34.40;;;;;;5084346;22;20091;-58
2021/04/06 16:17:00;;;;;;;9.05;1.80;;;11.00;34.60;;;;;;5080680;23;20075;-59
2021/04/06 16:19:28;;;;;;;4.68;1.25;;;11.30;33.40;;;;;;5100239;22;20190;-59
2021/04/06 16:21:54;;;;;;;2.72;1.15;;;11.50;33.20;;;;;;5082248;23;20158;-59
2021/04/06 16:24:22;;;;;;;2.92;1.15;;;11.70;33.20;;;;;;5103369;22;20105;-59
2021/04/06 16:29:14;;;;;;;4.93;1.70;;;11.70;32.40;;;;;;5085506;23;20049;-59
2021/04/06 16:31:40;;;;;;;5.60;1.52;;;11.80;32.90;;;;;;5064857;22;20561;-59
2021/04/06 16:36:33;;;;;;;12.25;1.77;;;11.70;33.50;;;;;;5104233;22;20398;-58
2021/04/06 16:38:59;;;;;;;4.40;1.30;;;11.80;33.50;;;;;;5098973;22;20047;-59
2021/04/06 16:41:25;;;;;;;7.15;1.30;;;12.00;32.90;;;;;;5106072;22;20084;-59
2021/04/06 16:43:51;;;;;;;5.65;1.45;;;12.00;32.80;;;;;;5098042;22;20052;-59
2021/04/06 16:46:18;;;;;;;5.70;1.40;;;11.80;32.80;;;;;;5102833;22;20546;-59
2021/04/06 16:48:45;;;;;;;6.28;1.90;;;11.50;33.30;;;;;;5096764;22;20091;-59
2021/04/06 16:51:12;;;;;;;3.22;1.25;;;11.40;33.50;;;;;;5103706;22;20059;-59
2021/04/06 16:56:14;;;;;;;10.52;2.42;;;11.50;33.00;;;;;;5103571;22;20147;-59
2021/04/06 16:58:40;;;;;;;4.65;2.33;;;11.80;32.30;;;;;;5102746;22;20067;-58
2021/04/06 17:01:07;;;;;;;5.13;1.50;;;11.80;32.20;;;;;;5102415;23;20068;-58
2021/04/06 17:03:34;;;;;;;6.03;1.30;;;11.90;31.90;;;;;;5082503;22;20052;-58
2021/04/06 17:10:53;;;;;;;5.07;1.23;;;11.50;32.10;;;;;;5124236;22;20054;-59
2021/04/06 17:13:21;;;;;;;2.90;1.20;;;11.20;32.90;;;;;;5102801;22;20062;-60
2021/04/06 17:15:47;;;;;;;4.95;1.10;;;11.20;33.40;;;;;;5102594;22;20523;-60
2021/04/06 17:18:14;;;;;;;3.80;1.40;;;11.00;33.90;;;;;;5102383;22;20505;-60
2021/04/06 17:20:41;;;;;;;7.28;1.50;;;11.00;34.40;;;;;;5123527;22;20047;-60
2021/04/06 17:23:08;;;;;;;5.57;1.50;;;11.00;34.80;;;;;;5123899;22;20419;-60
2021/04/06 17:37:53;;;;;;;6.65;1.23;;;11.00;33.70;;;;;;5104737;22;20134;-60
2021/04/06 17:40:24;;;;;;;4.13;1.38;;;10.90;34.10;;;;;;5103901;22;20076;-60
2021/04/06 17:47:47;;;;;;;5.25;1.67;;;10.80;35.30;;;;;;5103530;22;20063;-60
2021/04/06 17:52:39;;;;;;;5.43;1.35;;;10.60;35.20;;;;;;5082474;22;20056;-60
2021/04/06 18:02:32;;;;;;;5.45;1.52;;;10.30;37.00;;;;;;5102453;22;20085;-60
2021/04/06 18:04:58;;;;;;;5.18;1.95;;;10.20;37.10;;;;;;5100962;22;20091;-60
2021/04/06 18:07:24;;;;;;;4.80;1.88;;;10.10;36.90;;;;;;5101510;22;20064;-60
2021/04/06 18:09:50;;;;;;;7.28;1.63;;;9.90;37.40;;;;;;5102821;22;20193;-60
2021/04/06 18:12:16;;;;;;;7.13;1.52;;;9.80;37.20;;;;;;5101483;22;20149;-60
2021/04/06 18:17:08;;;;;;;9.50;2.10;;;9.60;37.90;;;;;;5082995;22;20044;-60
2021/04/06 18:19:33;;;;;;;7.40;1.85;;;9.50;38.40;;;;;;5008618;23;20050;-59
2021/04/06 18:21:59;;;;;;;6.15;1.85;;;9.40;38.70;;;;;;5038356;23;20076;-59
2021/04/06 18:24:25;;;;;;;6.50;1.73;;;9.40;39.50;;;;;;5084175;23;20354;-59
2021/04/06 18:29:18;;;;;;;4.18;1.58;;;9.20;39.20;;;;;;5082157;22;20083;-60
2021/04/06 18:34:10;;;;;;;3.58;1.95;;;9.20;39.80;;;;;;5084377;22;20052;-58
2021/04/06 18:39:03;;;;;;;5.32;1.48;;;9.20;40.00;;;;;;5079400;23;20045;-60
2021/04/06 18:41:31;;;;;;;4.10;1.50;;;9.20;40.30;;;;;;5062540;22;20068;-60
2021/04/06 18:43:57;;;;;;;4.38;1.85;;;9.10;39.70;;;;;;5053432;22;20096;-58
2021/04/06 18:46:23;;;;;;;4.97;1.70;;;9.10;39.70;;;;;;5044777;23;20061;-58
2021/04/06 18:51:14;;;;;;;5.35;1.83;;;9.10;40.20;;;;;;5102003;22;20152;-58
2021/04/06 18:53:40;;;;;;;11.65;2.00;;;9.20;40.30;;;;;;5100843;22;20366;-60
2021/04/06 18:58:32;;;;;;;5.22;1.85;;;9.20;40.80;;;;;;5102673;22;20480;-59
2021/04/06 19:00:58;;;;;;;6.82;2.20;;;9.20;41.00;;;;;;5101562;22;20051;-59
2021/04/06 19:03:24;;;;;;;6.93;2.30;;;9.20;41.20;;;;;;5123363;22;20063;-60
2021/04/06 19:05:51;;;;;;;6.03;2.47;;;9.20;40.90;;;;;;5100114;22;20125;-58
2021/04/06 19:08:19;;;;;;;7.18;2.10;;;9.20;40.80;;;;;;5100503;22;20496;-59
2021/04/06 19:10:50;;;;;;;11.88;2.47;;;9.20;41.10;;;;;;5079963;22;20132;-59
2021/04/06 19:20:40;;;;;;;8.05;2.10;;;9.10;41.10;;;;;;5121599;22;20051;-59
2021/04/06 19:23:07;;;;;;;5.72;2.10;;;9.10;41.80;;;;;;5100503;22;20512;-59
2021/04/06 19:25:34;;;;;;;5.60;1.75;;;9.10;41.70;;;;;;5100155;22;20055;-59
2021/04/06 19:28:01;;;;;;;6.55;1.52;;;9.10;41.90;;;;;;5122512;22;20051;-59